Time,TemperatureF,DewpointF,PressureIn,WindDirection,WindDirectionDegrees,WindSpeedMPH,WindSpeedGustMPH,Humidity,HourlyPrecipIn,Conditions,Clouds,dailyrainin,SoftwareType,DateUTC
2013-01-19 00:05:00,33.7,23.5,30.51,NW,309,1.0,2.0,66,0.00,,,0.00,Wunderground v.1.15,2013-01-19 05:05:00,
2013-01-19 00:07:00,33.6,23.0,30.50,NW,312,2.0,4.0,65,0.01,,,0.00,weatherlink.com 1.10,2013-01-19 05:07:00,
2013-01-19 00:15:00,33.7,22.8,30.50,North,355,1.0,1.0,64,0.00,,,0.00,Wunderground v.1.15,2013-01-19 05:15:00,
2013-01-19 00:20:00,33.7,23.2,30.50,North,355,0.0,0.0,65,0.00,,,0.00,Wunderground v.1.15,2013-01-19 05:20:00,
2013-01-19 00:30:00,33.4,22.9,30.50,North,355,0.0,0.0,65,0.00,,,0.00,Wunderground v.1.15,2013-01-19 05:30:00,
2013-01-19 00:35:00,33.3,22.8,30.50,North,355,0.0,0.0,65,0.00,,,0.00,Wunderground v.1.15,2013-01-19 05:35:00,
2013-01-19 00:40:00,33.3,22.8,30.50,North,355,0.0,0.0,65,0.00,,,0.00,Wunderground v.1.15,2013-01-19 05:40:00,
2013-01-19 00:45:00,33.3,22.8,30.50,North,355,0.0,1.0,65,0.00,,,0.00,Wunderground v.1.15,2013-01-19 05:45:00,
2013-01-19 00:52:00,33.3,22.0,30.50,North,351,1.0,3.0,64,0.00,,,0.00,weatherlink.com 1.10,2013-01-19 05:52:00,
2013-01-19 01:00:00,33.4,22.5,30.50,West,269,1.0,1.0,64,0.00,,,0.00,Wunderground v.1.15,2013-01-19 06:00:00,
2013-01-19 01:08:00,33.6,22.0,30.50,West,275,0.0,4.0,63,0.00,,,0.00,weatherlink.com 1.10,2013-01-19 06:08:00,
2013-01-19 01:15:00,33.6,22.7,30.50,WSW,246,1.0,3.0,64,0.00,,,0.00,Wunderground v.1.15,2013-01-19 06:15:00,
2013-01-19 01:20:00,33.6,22.7,30.50,West,274,1.0,2.0,64,0.00,,,0.00,Wunderground v.1.15,2013-01-19 06:20:00,
2013-01-19 01:30:00,33.6,23.1,30.50,WSW,250,1.0,2.0,65,0.00,,,0.00,Wunderground v.1.15,2013-01-19 06:30:00,
2013-01-19 01:38:00,33.5,23.0,30.50,NNE,23,1.0,4.0,65,0.00,,,0.00,weatherlink.com 1.10,2013-01-19 06:38:00,
2013-01-19 01:45:00,33.3,23.5,30.50,North,11,1.0,2.0,67,0.00,,,0.00,Wunderground v.1.15,2013-01-19 06:45:00,
2013-01-19 01:55:00,32.9,23.0,30.50,NNE,15,1.0,4.0,67,0.00,,,0.00,weatherlink.com 1.10,2013-01-19 06:55:00,
2013-01-19 02:00:00,32.9,23.1,30.50,NNE,25,1.0,1.0,67,0.00,,,0.00,Wunderground v.1.15,2013-01-19 07:00:00,
2013-01-19 02:05:00,33.0,23.2,30.50,WNW,296,2.0,2.0,67,0.00,,,0.00,Wunderground v.1.15,2013-01-19 07:05:00,
2013-01-19 02:15:00,32.8,23.0,30.50,NNE,27,1.0,2.0,67,0.00,,,0.00,Wunderground v.1.15,2013-01-19 07:15:00,
2013-01-19 02:23:00,32.6,23.0,30.50,NNE,27,3.0,3.0,67,0.00,,,0.00,weatherlink.com 1.10,2013-01-19 07:23:00,
2013-01-19 02:30:00,32.5,23.1,30.50,NE,39,2.0,2.0,68,0.00,,,0.00,Wunderground v.1.15,2013-01-19 07:30:00,
2013-01-19 02:38:00,32.4,23.0,30.50,NE,39,0.0,3.0,67,0.00,,,0.00,weatherlink.com 1.10,2013-01-19 07:38:00,
2013-01-19 02:45:00,32.5,22.8,30.50,NE,55,1.0,1.0,67,0.00,,,0.00,Wunderground v.1.15,2013-01-19 07:45:00,
2013-01-19 02:50:00,32.4,22.7,30.49,NE,55,1.0,2.0,67,0.00,,,0.00,Wunderground v.1.15,2013-01-19 07:50:00,
2013-01-19 02:55:00,32.4,22.7,30.49,NE,55,1.0,2.0,67,0.00,,,0.00,Wunderground v.1.15,2013-01-19 07:55:00,
2013-01-19 03:00:00,32.4,22.7,30.49,NE,55,0.0,0.0,67,0.00,,,0.00,Wunderground v.1.15,2013-01-19 08:00:00,
2013-01-19 03:09:00,32.4,23.0,30.48,NE,55,0.0,3.0,67,0.00,,,0.00,weatherlink.com 1.10,2013-01-19 08:09:00,
2013-01-19 03:15:00,32.3,22.6,30.49,NE,55,0.0,1.0,67,0.00,,,0.00,Wunderground v.1.15,2013-01-19 08:15:00,
2013-01-19 03:20:00,32.1,22.4,30.49,NE,55,0.0,0.0,67,0.00,,,0.00,Wunderground v.1.15,2013-01-19 08:20:00,
2013-01-19 03:26:00,32.1,22.0,30.49,NE,51,1.0,3.0,67,0.00,,,0.00,weatherlink.com 1.10,2013-01-19 08:26:00,
2013-01-19 03:35:00,32.2,22.5,30.49,NW,320,1.0,2.0,67,0.00,,,0.00,Wunderground v.1.15,2013-01-19 08:35:00,
2013-01-19 03:40:00,32.1,22.4,30.48,North,360,1.0,1.0,67,0.00,,,0.00,Wunderground v.1.15,2013-01-19 08:40:00,
2013-01-19 03:50:00,32.1,22.7,30.49,North,360,1.0,1.0,68,0.00,,,0.00,Wunderground v.1.15,2013-01-19 08:50:00,
2013-01-19 03:55:00,32.0,23.0,30.48,North,360,0.0,1.0,69,0.00,,,0.00,Wunderground v.1.15,2013-01-19 08:55:00,
2013-01-19 04:05:00,31.6,23.3,30.48,North,360,0.0,0.0,71,0.00,,,0.00,Wunderground v.1.15,2013-01-19 09:05:00,
2013-01-19 04:10:00,31.4,23.4,30.48,North,360,0.0,0.0,72,0.00,,,0.00,Wunderground v.1.15,2013-01-19 09:10:00,
2013-01-19 04:15:00,31.2,23.2,30.48,North,360,0.0,2.0,72,0.00,,,0.00,Wunderground v.1.15,2013-01-19 09:15:00,
2013-01-19 04:20:00,31.1,23.1,30.48,NW,307,1.0,2.0,72,0.00,,,0.00,Wunderground v.1.15,2013-01-19 09:20:00,
2013-01-19 04:30:00,31.1,23.1,30.47,WSW,246,2.0,3.0,72,0.00,,,0.00,Wunderground v.1.15,2013-01-19 09:30:00,
2013-01-19 04:40:00,31.1,23.0,30.47,West,268,1.0,4.0,72,0.00,,,0.00,weatherlink.com 1.10,2013-01-19 09:40:00,
2013-01-19 04:50:00,30.7,23.4,30.47,NE,50,2.0,2.0,74,0.00,,,0.00,Wunderground v.1.15,2013-01-19 09:50:00,
2013-01-19 04:55:00,30.5,23.2,30.47,NE,50,2.0,2.0,74,0.00,,,0.00,Wunderground v.1.15,2013-01-19 09:55:00,
2013-01-19 05:05:00,30.1,23.4,30.46,North,355,1.0,1.0,76,0.00,,,0.00,Wunderground v.1.15,2013-01-19 10:05:00,
2013-01-19 05:10:00,30.0,24.0,30.46,NE,36,2.0,5.0,77,0.00,,,0.00,weatherlink.com 1.10,2013-01-19 10:10:00,
2013-01-19 05:20:00,29.9,23.6,30.46,WSW,242,1.0,2.0,77,0.00,,,0.00,Wunderground v.1.15,2013-01-19 10:20:00,
2013-01-19 05:26:00,29.9,24.0,30.46,NNE,19,3.0,4.0,77,0.00,,,0.00,weatherlink.com 1.10,2013-01-19 10:26:00,
2013-01-19 05:35:00,29.9,23.9,30.46,NNW,331,1.0,1.0,78,0.00,,,0.00,Wunderground v.1.15,2013-01-19 10:35:00,
2013-01-19 05:41:00,29.8,24.0,30.46,SW,230,2.0,4.0,78,0.00,,,0.00,weatherlink.com 1.10,2013-01-19 10:41:00,
2013-01-19 05:50:00,29.7,23.4,30.46,WSW,239,1.0,3.0,77,0.00,,,0.00,Wunderground v.1.15,2013-01-19 10:50:00,
2013-01-19 05:56:00,29.7,24.0,30.46,WSW,238,1.0,4.0,78,0.00,,,0.00,weatherlink.com 1.10,2013-01-19 10:56:00,
2013-01-19 06:05:00,29.6,23.6,30.46,WSW,257,1.0,2.0,78,0.00,,,0.00,Wunderground v.1.15,2013-01-19 11:05:00,
2013-01-19 06:10:00,29.6,23.6,30.46,WSW,257,1.0,1.0,78,0.00,,,0.00,Wunderground v.1.15,2013-01-19 11:10:00,
2013-01-19 07:50:00,28.5,23.4,30.45,SW,227,0.0,0.0,81,0.00,,,0.00,Wunderground v.1.15,2013-01-19 12:50:00,
2013-01-19 07:55:00,28.5,23.7,30.45,SW,227,0.0,0.0,82,0.00,,,0.00,Wunderground v.1.15,2013-01-19 12:55:00,
2013-01-19 08:01:00,28.4,23.6,30.46,SW,227,0.0,0.0,82,0.00,,,0.00,Wunderground v.1.15,2013-01-19 13:01:00,
2013-01-19 08:10:00,28.5,23.4,30.46,SW,227,0.0,0.0,81,0.00,,,0.00,Wunderground v.1.15,2013-01-19 13:10:00,
2013-01-19 08:15:00,28.7,23.6,30.46,SW,227,0.0,0.0,81,0.00,,,0.00,Wunderground v.1.15,2013-01-19 13:15:00,
2013-01-19 08:20:00,29.0,23.9,30.46,SW,227,0.0,0.0,81,0.00,,,0.00,Wunderground v.1.15,2013-01-19 13:20:00,
2013-01-19 08:27:00,29.4,24.0,30.46,SW,227,0.0,0.0,80,0.00,,,0.00,weatherlink.com 1.10,2013-01-19 13:27:00,
2013-01-19 08:35:00,29.9,24.8,30.46,SW,227,0.0,0.0,81,0.00,,,0.00,Wunderground v.1.15,2013-01-19 13:35:00,
2013-01-19 08:40:00,30.1,25.0,30.46,SW,227,0.0,0.0,81,0.00,,,0.00,Wunderground v.1.15,2013-01-19 13:40:00,
2013-01-19 08:50:00,30.4,24.7,30.46,SW,227,0.0,0.0,79,0.00,,,0.00,Wunderground v.1.15,2013-01-19 13:50:00,
2013-01-19 08:58:00,30.8,25.0,30.46,SW,227,0.0,0.0,79,0.00,,,0.00,weatherlink.com 1.10,2013-01-19 13:58:00,
2013-01-19 09:05:00,31.1,24.7,30.46,SW,227,0.0,0.0,77,0.00,,,0.00,Wunderground v.1.15,2013-01-19 14:05:00,
2013-01-19 09:15:00,31.7,25.0,30.46,SW,227,0.0,0.0,75,0.00,,,0.00,weatherlink.com 1.10,2013-01-19 14:15:00,
2013-01-19 09:20:00,32.1,24.7,30.47,SW,227,0.0,0.0,74,0.00,,,0.00,Wunderground v.1.15,2013-01-19 14:20:00,
2013-01-19 09:28:00,32.5,25.0,30.47,SW,227,0.0,0.0,74,0.00,,,0.00,weatherlink.com 1.10,2013-01-19 14:28:00,
2013-01-19 09:35:00,32.9,25.5,30.47,SW,227,0.0,0.0,74,0.00,,,0.00,Wunderground v.1.15,2013-01-19 14:35:00,
2013-01-19 09:40:00,33.2,25.5,30.47,SW,227,0.0,0.0,73,0.00,,,0.00,Wunderground v.1.15,2013-01-19 14:40:00,
2013-01-19 09:45:00,33.5,25.4,30.47,SW,227,0.0,0.0,72,0.00,,,0.00,Wunderground v.1.15,2013-01-19 14:45:00,
2013-01-19 09:50:00,33.7,25.3,30.47,SW,227,0.0,0.0,71,0.00,,,0.00,Wunderground v.1.15,2013-01-19 14:50:00,
2013-01-19 09:58:00,34.1,26.0,30.47,SW,227,0.0,0.0,71,0.00,,,0.00,weatherlink.com 1.10,2013-01-19 14:58:00,
2013-01-19 10:05:00,34.5,26.7,30.48,SW,227,0.0,0.0,73,0.00,,,0.00,Wunderground v.1.15,2013-01-19 15:05:00,
2013-01-19 10:10:00,34.7,25.9,30.48,SW,227,0.0,0.0,70,0.00,,,0.00,Wunderground v.1.15,2013-01-19 15:10:00,
2013-01-19 10:16:00,35.0,25.0,30.48,SW,223,2.0,4.0,68,0.00,,,0.00,weatherlink.com 1.10,2013-01-19 15:16:00,
2013-01-19 10:25:00,35.9,24.9,30.48,SW,223,0.0,1.0,64,0.00,,,0.00,Wunderground v.1.15,2013-01-19 15:25:00,
2013-01-19 10:35:00,36.4,25.0,30.47,SW,223,0.0,0.0,63,0.00,,,0.00,Wunderground v.1.15,2013-01-19 15:35:00,
2013-01-19 10:45:00,36.7,19.0,30.47,SW,223,0.0,2.0,49,0.00,,,0.00,weatherlink.com 1.10,2013-01-19 15:45:00,
2013-01-19 10:50:00,37.0,20.5,30.47,SW,223,0.0,0.0,51,0.00,,,0.00,Wunderground v.1.15,2013-01-19 15:50:00,
2013-01-19 10:55:00,37.1,16.6,30.47,SW,223,0.0,0.0,43,0.00,,,0.00,Wunderground v.1.15,2013-01-19 15:55:00,
2013-01-19 11:05:00,37.7,13.1,30.47,West,259,0.0,0.0,36,0.00,,,0.00,Wunderground v.1.15,2013-01-19 16:05:00,
2013-01-19 11:10:00,38.0,13.4,30.46,West,259,0.0,0.0,36,0.00,,,0.00,Wunderground v.1.15,2013-01-19 16:10:00,
2013-01-19 11:15:00,38.3,12.3,30.46,West,259,0.0,0.0,34,0.00,,,0.00,Wunderground v.1.15,2013-01-19 16:15:00,
2013-01-19 11:25:00,38.8,13.4,30.45,NNW,329,1.0,2.0,35,0.00,,,0.00,Wunderground v.1.15,2013-01-19 16:25:00,
2013-01-19 11:30:00,38.9,15.0,30.45,NNW,328,2.0,3.0,38,0.00,,,0.00,weatherlink.com 1.10,2013-01-19 16:30:00,
2013-01-19 11:35:00,39.0,15.5,30.44,WSW,240,1.0,2.0,38,0.00,,,0.00,Wunderground v.1.15,2013-01-19 16:35:00,
2013-01-19 11:45:00,39.3,17.0,30.44,WSW,241,1.0,2.0,40,0.00,,,0.00,weatherlink.com 1.10,2013-01-19 16:45:00,
2013-01-19 11:50:00,39.3,18.6,30.44,WSW,241,1.0,1.0,43,0.00,,,0.00,Wunderground v.1.15,2013-01-19 16:50:00,
2013-01-19 11:55:00,39.3,20.7,30.43,WSW,241,1.0,2.0,47,0.00,,,0.00,Wunderground v.1.15,2013-01-19 16:55:00,
2013-01-19 12:00:00,39.2,19.0,30.43,WSW,245,2.0,3.0,44,0.00,,,0.00,weatherlink.com 1.10,2013-01-19 17:00:00,
2013-01-19 12:10:00,39.7,22.1,30.42,SW,228,1.0,2.0,49,0.00,,,0.00,Wunderground v.1.15,2013-01-19 17:10:00,
2013-01-19 12:20:00,40.3,24.5,30.41,WSW,252,2.0,2.0,53,0.00,,,0.00,Wunderground v.1.15,2013-01-19 17:20:00,
2013-01-19 12:30:00,40.6,24.0,30.40,WSW,255,1.0,3.0,53,0.00,,,0.00,weatherlink.com 1.10,2013-01-19 17:30:00,
2013-01-19 12:35:00,40.6,22.4,30.39,WNW,282,1.0,1.0,48,0.00,,,0.00,Wunderground v.1.15,2013-01-19 17:35:00,
2013-01-19 12:45:00,41.1,20.8,30.38,SW,229,1.0,2.0,44,0.00,,,0.00,Wunderground v.1.15,2013-01-19 17:45:00,
2013-01-19 12:50:00,41.5,16.5,30.38,NW,322,2.0,3.0,36,0.00,,,0.00,Wunderground v.1.15,2013-01-19 17:50:00,
2013-01-19 12:55:00,41.6,22.3,30.38,SW,217,2.0,5.0,46,0.00,,,0.00,Wunderground v.1.15,2013-01-19 17:55:00,
2013-01-19 13:05:00,41.9,22.6,30.37,NNW,331,2.0,4.0,46,0.00,,,0.00,Wunderground v.1.15,2013-01-19 18:05:00,
2013-01-19 13:15:00,42.1,22.8,30.36,WNW,300,2.0,2.0,46,0.00,,,0.00,Wunderground v.1.15,2013-01-19 18:15:00,
2013-01-19 13:20:00,42.4,23.6,30.36,West,277,2.0,2.0,47,0.00,,,0.00,Wunderground v.1.15,2013-01-19 18:20:00,
2013-01-19 13:30:00,43.1,23.2,30.35,NW,321,2.0,2.0,45,0.00,,,0.00,Wunderground v.1.15,2013-01-19 18:30:00,
2013-01-19 13:35:00,43.3,20.6,30.35,NW,318,2.0,2.0,40,0.00,,,0.00,Wunderground v.1.15,2013-01-19 18:35:00,
2013-01-19 13:40:00,43.4,18.8,30.35,NNE,16,2.0,4.0,37,0.00,,,0.00,Wunderground v.1.15,2013-01-19 18:40:00,
2013-01-19 13:50:00,43.9,20.5,30.34,WSW,257,2.0,2.0,39,0.00,,,0.00,Wunderground v.1.15,2013-01-19 18:50:00,
2013-01-19 13:55:00,44.5,19.8,30.34,West,265,2.0,3.0,37,0.00,,,0.00,Wunderground v.1.15,2013-01-19 18:55:00,
2013-01-19 14:05:00,45.2,19.1,30.33,West,281,2.0,4.0,35,0.00,,,0.00,Wunderground v.1.15,2013-01-19 19:05:00,
2013-01-19 14:15:00,45.6,18.1,30.32,North,360,2.0,2.0,33,0.00,,,0.00,Wunderground v.1.15,2013-01-19 19:15:00,
2013-01-19 14:20:00,46.2,19.3,30.32,NW,323,2.0,3.0,34,0.00,,,0.00,Wunderground v.1.15,2013-01-19 19:20:00,
2013-01-19 14:30:00,46.7,21.8,30.32,WSW,254,2.0,3.0,37,0.00,,,0.00,Wunderground v.1.15,2013-01-19 19:30:00,
2013-01-19 14:40:00,46.8,19.9,30.32,SW,232,2.0,2.0,34,0.00,,,0.00,Wunderground v.1.15,2013-01-19 19:40:00,
2013-01-19 14:47:00,46.6,17.0,30.31,West,275,2.0,9.0,31,0.00,,,0.00,weatherlink.com 1.10,2013-01-19 19:47:00,
2013-01-19 15:00:00,47.6,21.3,30.31,West,261,2.0,2.0,35,0.00,,,0.00,Wunderground v.1.15,2013-01-19 20:00:00,
2013-01-19 15:10:00,47.8,18.6,30.31,SW,225,3.0,3.0,31,0.00,,,0.00,Wunderground v.1.15,2013-01-19 20:10:00,
2013-01-19 15:15:00,47.7,16.9,30.31,NW,320,3.0,4.0,29,0.00,,,0.00,Wunderground v.1.15,2013-01-19 20:15:00,
2013-01-19 15:20:00,47.5,16.8,30.30,WSW,240,4.0,4.0,29,0.00,,,0.00,Wunderground v.1.15,2013-01-19 20:20:00,
2013-01-19 15:30:00,47.4,18.2,30.30,West,274,4.0,4.0,31,0.00,,,0.00,Wunderground v.1.15,2013-01-19 20:30:00,
2013-01-19 15:40:00,47.5,16.8,30.29,NE,35,3.0,3.0,29,0.00,,,0.00,Wunderground v.1.15,2013-01-19 20:40:00,
2013-01-19 15:49:00,47.8,20.0,30.29,West,281,4.0,8.0,33,0.00,,,0.00,weatherlink.com 1.10,2013-01-19 20:49:00,
2013-01-19 15:55:00,47.9,17.1,30.29,West,262,3.0,5.0,29,0.00,,,0.00,Wunderground v.1.15,2013-01-19 20:55:00,
2013-01-19 16:00:00,48.1,18.8,30.29,WSW,253,3.0,6.0,31,0.00,,,0.00,Wunderground v.1.15,2013-01-19 21:00:00,
2013-01-19 16:10:00,47.7,20.7,30.29,SSW,212,3.0,3.0,34,0.00,,,0.00,Wunderground v.1.15,2013-01-19 21:10:00,
2013-01-19 16:18:00,47.2,19.0,30.28,NW,324,0.0,6.0,33,0.00,,,0.00,weatherlink.com 1.10,2013-01-19 21:18:00,
2013-01-19 16:25:00,46.9,20.6,30.28,West,269,3.0,3.0,35,0.00,,,0.00,Wunderground v.1.15,2013-01-19 21:25:00,
2013-01-19 16:30:00,47.0,20.7,30.28,WNW,302,3.0,3.0,35,0.00,,,0.00,Wunderground v.1.15,2013-01-19 21:30:00,
2013-01-19 16:35:00,46.8,21.2,30.28,WSW,257,3.0,3.0,36,0.00,,,0.00,Wunderground v.1.15,2013-01-19 21:35:00,
2013-01-19 16:45:00,46.9,22.6,30.28,NW,306,3.0,3.0,38,0.00,,,0.00,Wunderground v.1.15,2013-01-19 21:45:00,
2013-01-19 16:55:00,46.1,23.7,30.28,SW,232,5.0,6.0,41,0.00,,,0.00,Wunderground v.1.15,2013-01-19 21:55:00,
2013-01-19 17:00:00,45.9,23.5,30.28,West,279,4.0,5.0,41,0.00,,,0.00,Wunderground v.1.15,2013-01-19 22:00:00,
2013-01-19 17:15:00,45.0,23.3,30.28,SW,223,4.0,4.0,42,0.00,,,0.00,Wunderground v.1.15,2013-01-19 22:15:00,
2013-01-19 17:20:00,44.6,23.5,30.28,WSW,251,4.0,4.0,43,0.00,,,0.00,Wunderground v.1.15,2013-01-19 22:20:00,
2013-01-19 17:25:00,44.0,24.0,30.28,SW,224,5.0,6.0,45,0.00,,,0.00,Wunderground v.1.15,2013-01-19 22:25:00,
2013-01-19 17:35:00,43.7,24.0,30.28,SSW,211,5.0,8.0,46,0.00,,,0.00,weatherlink.com 1.10,2013-01-19 22:35:00,
2013-01-19 17:40:00,43.4,24.5,30.28,SW,217,5.0,6.0,47,0.00,,,0.00,Wunderground v.1.15,2013-01-19 22:40:00,
2013-01-19 17:49:00,42.6,24.0,30.27,SSW,192,7.0,7.0,48,0.00,,,0.00,weatherlink.com 1.10,2013-01-19 22:49:00,
2013-01-19 17:55:00,42.0,24.7,30.28,SSW,205,6.0,7.0,50,0.00,,,0.00,Wunderground v.1.15,2013-01-19 22:55:00,
2013-01-19 18:05:00,41.5,24.7,30.28,SSW,208,6.0,7.0,51,0.00,,,0.00,Wunderground v.1.15,2013-01-19 23:05:00,
2013-01-19 18:10:00,41.2,24.9,30.28,SSW,213,6.0,6.0,52,0.00,,,0.00,Wunderground v.1.15,2013-01-19 23:10:00,
2013-01-19 18:15:00,41.1,24.8,30.28,SW,216,6.0,7.0,52,0.00,,,0.00,Wunderground v.1.15,2013-01-19 23:15:00,
2013-01-19 18:25:00,40.6,24.8,30.28,WSW,237,7.0,7.0,53,0.00,,,0.00,Wunderground v.1.15,2013-01-19 23:25:00,
2013-01-19 18:35:00,40.3,25.0,30.28,SW,217,5.0,10.0,54,0.00,,,0.00,weatherlink.com 1.10,2013-01-19 23:35:00,
2013-01-19 18:40:00,40.2,24.9,30.28,SSW,203,6.0,6.0,54,0.00,,,0.00,Wunderground v.1.15,2013-01-19 23:40:00,
2013-01-19 18:50:00,39.7,25.0,30.29,SSW,192,7.0,12.0,55,0.00,,,0.00,weatherlink.com 1.10,2013-01-19 23:50:00,
2013-01-19 19:00:00,39.4,25.4,30.29,South,187,5.0,5.0,57,0.00,,,0.00,Wunderground v.1.15,2013-01-20 00:00:00,
2013-01-19 19:05:00,39.2,25.6,30.29,SSW,211,5.0,5.0,58,0.00,,,0.00,Wunderground v.1.15,2013-01-20 00:05:00,
2013-01-19 19:15:00,38.8,25.7,30.29,SSW,205,3.0,5.0,59,0.00,,,0.00,Wunderground v.1.15,2013-01-20 00:15:00,
2013-01-19 19:20:00,38.7,25.0,30.29,SSW,195,1.0,7.0,59,0.00,,,0.00,weatherlink.com 1.10,2013-01-20 00:20:00,
2013-01-19 19:25:00,38.6,25.1,30.28,South,184,3.0,7.0,58,0.00,,,0.00,Wunderground v.1.15,2013-01-20 00:25:00,
2013-01-19 19:30:00,38.8,24.9,30.29,South,189,4.0,4.0,57,0.00,,,0.00,Wunderground v.1.15,2013-01-20 00:30:00,
2013-01-19 19:45:00,38.8,25.3,30.29,NW,323,4.0,4.0,58,0.00,,,0.00,Wunderground v.1.15,2013-01-20 00:45:00,
2013-01-19 19:50:00,38.4,24.9,30.28,NNW,346,3.0,3.0,58,0.00,,,0.00,Wunderground v.1.15,2013-01-20 00:50:00,
2013-01-19 20:05:00,37.7,25.1,30.29,West,271,2.0,2.0,60,0.00,,,0.00,Wunderground v.1.15,2013-01-20 01:05:00,
2013-01-19 20:10:00,37.9,24.8,30.29,SW,233,3.0,4.0,59,0.00,,,0.00,Wunderground v.1.15,2013-01-20 01:10:00,
2013-01-19 20:15:00,38.0,24.9,30.29,SW,230,4.0,4.0,59,0.00,,,0.00,Wunderground v.1.15,2013-01-20 01:15:00,
2013-01-19 20:21:00,38.0,25.0,30.29,SSW,205,3.0,6.0,59,0.00,,,0.00,weatherlink.com 1.10,2013-01-20 01:21:00,
2013-01-19 20:30:00,37.8,24.7,30.29,WSW,248,3.0,6.0,59,0.00,,,0.00,Wunderground v.1.15,2013-01-20 01:30:00,
2013-01-19 20:40:00,37.5,24.9,30.29,NW,305,3.0,3.0,60,0.00,,,0.00,Wunderground v.1.15,2013-01-20 01:40:00,
2013-01-19 20:55:00,37.0,24.8,30.28,NW,309,2.0,2.0,61,0.00,,,0.00,Wunderground v.1.15,2013-01-20 01:55:00,
2013-01-19 21:00:00,36.8,24.6,30.28,NNW,330,2.0,2.0,61,0.00,,,0.00,Wunderground v.1.15,2013-01-20 02:00:00,
2013-01-19 21:05:00,36.9,24.7,30.28,WSW,241,2.0,2.0,61,0.00,,,0.00,Wunderground v.1.15,2013-01-20 02:05:00,
2013-01-19 21:15:00,36.9,24.3,30.28,SW,227,2.0,2.0,60,0.00,,,0.00,Wunderground v.1.15,2013-01-20 02:15:00,
2013-01-19 21:22:00,37.0,24.0,30.28,SSW,213,3.0,5.0,60,0.00,,,0.00,weatherlink.com 1.10,2013-01-20 02:22:00,
2013-01-19 21:30:00,37.3,23.4,30.28,WSW,246,3.0,3.0,57,0.00,,,0.00,Wunderground v.1.15,2013-01-20 02:30:00,
2013-01-19 21:40:00,37.7,23.0,30.28,SW,225,3.0,3.0,55,0.00,,,0.00,Wunderground v.1.15,2013-01-20 02:40:00,
2013-01-19 21:53:00,37.9,22.0,30.28,SW,227,1.0,3.0,54,0.00,,,0.00,weatherlink.com 1.10,2013-01-20 02:53:00,
2013-01-19 22:00:00,38.0,22.4,30.27,SW,227,1.0,1.0,53,0.00,,,0.00,Wunderground v.1.15,2013-01-20 03:00:00,
2013-01-19 22:07:00,38.4,20.0,30.27,SW,227,2.0,4.0,48,0.00,,,0.00,weatherlink.com 1.10,2013-01-20 03:07:00,
2013-01-19 22:15:00,38.8,19.8,30.27,WSW,248,2.0,2.0,46,0.00,,,0.00,Wunderground v.1.15,2013-01-20 03:15:00,
2013-01-19 22:20:00,38.6,21.5,30.27,WSW,248,2.0,2.0,50,0.00,,,0.00,Wunderground v.1.15,2013-01-20 03:20:00,
2013-01-19 22:30:00,38.5,21.0,30.26,WSW,248,2.0,3.0,49,0.00,,,0.00,Wunderground v.1.15,2013-01-20 03:30:00,
2013-01-19 22:40:00,38.3,20.3,30.27,West,259,2.0,2.0,48,0.00,,,0.00,Wunderground v.1.15,2013-01-20 03:40:00,
2013-01-19 22:45:00,38.3,19.8,30.27,West,267,3.0,3.0,47,0.00,,,0.00,Wunderground v.1.15,2013-01-20 03:45:00,
2013-01-19 22:55:00,38.2,19.0,30.26,West,267,2.0,4.0,47,0.00,,,0.00,weatherlink.com 1.10,2013-01-20 03:55:00,
2013-01-19 23:00:00,38.2,18.7,30.26,West,261,3.0,3.0,45,0.00,,,0.00,Wunderground v.1.15,2013-01-20 04:00:00,
2013-01-19 23:10:00,38.2,18.2,30.26,West,262,3.0,3.0,44,0.00,,,0.00,Wunderground v.1.15,2013-01-20 04:10:00,
2013-01-19 23:15:00,38.0,19.0,30.26,West,271,3.0,3.0,46,0.00,,,0.00,Wunderground v.1.15,2013-01-20 04:15:00,
2013-01-19 23:25:00,37.9,18.0,30.25,West,277,2.0,5.0,45,0.00,,,0.00,weatherlink.com 1.10,2013-01-20 04:25:00,
2013-01-19 23:30:00,37.9,18.4,30.25,West,262,3.0,4.0,45,0.00,,,0.00,Wunderground v.1.15,2013-01-20 04:30:00,
2013-01-19 23:35:00,38.1,18.1,30.25,West,272,3.0,4.0,44,0.00,,,0.00,Wunderground v.1.15,2013-01-20 04:35:00,
2013-01-19 23:45:00,38.2,17.6,30.25,West,268,4.0,5.0,43,0.00,,,0.00,Wunderground v.1.15,2013-01-20 04:45:00,
2013-01-19 23:50:00,38.0,18.0,30.25,West,268,4.0,5.0,44,0.00,,,0.00,Wunderground v.1.15,2013-01-20 04:50:00,